Time;durP1;ratioP1;P1;durP2;ratioP2;P2;SDS_P1;SDS_P2;PMS_P1;PMS_P2;Temp;Humidity;BMP_temperature;BMP_pressure;BME280_temperature;BME280_humidity;BME280_pressure;Samples;Min_cycle;Max_cycle;Signal;HPM_P1;HPM_P2
2022/09/03 00:00:33;;;;;;;1.50;0.55;;;16.80;63.50;;;;;;5071663;28;20463;-80
2022/09/03 00:03:17;;;;;;;0.45;0.30;;;16.80;63.50;;;;;;5071473;28;20481;-80
2022/09/03 00:05:55;;;;;;;0.45;0.28;;;16.80;63.70;;;;;;5088786;28;20560;-80
2022/09/03 00:08:30;;;;;;;1.60;0.65;;;16.70;63.60;;;;;;5054814;28;20512;-80
2022/09/03 00:11:19;;;;;;;0.52;0.30;;;16.80;63.90;;;;;;5105822;28;20058;-80
2022/09/03 00:13:52;;;;;;;0.47;0.20;;;16.70;63.90;;;;;;5071751;28;20498;-80
2022/09/03 00:16:21;;;;;;;0.40;0.35;;;16.70;63.80;;;;;;5071641;28;20043;-80
2022/09/03 00:18:55;;;;;;;0.60;0.30;;;16.60;64.40;;;;;;5071743;28;20090;-80
2022/09/03 00:21:45;;;;;;;2.20;0.30;;;16.60;63.90;;;;;;5055214;28;20068;-80
2022/09/03 00:24:15;;;;;;;0.47;0.30;;;16.60;64.10;;;;;;5104928;28;20080;-80
2022/09/03 00:26:45;;;;;;;1.48;0.40;;;16.60;64.00;;;;;;5071270;28;20056;-80
2022/09/03 00:29:23;;;;;;;0.20;0.20;;;16.60;64.20;;;;;;5105189;28;20033;-80
2022/09/03 00:32:15;;;;;;;0.90;0.30;;;16.60;64.10;;;;;;5071257;28;20051;-80
2022/09/03 00:34:47;;;;;;;0.57;0.40;;;16.60;64.50;;;;;;5105112;28;20052;-80
2022/09/03 00:37:13;;;;;;;1.75;0.20;;;16.50;64.10;;;;;;5105557;28;20127;-80
2022/09/03 00:39:40;;;;;;;0.73;0.30;;;16.50;64.00;;;;;;5088105;28;20139;-80
2022/09/03 00:42:33;;;;;;;0.85;0.30;;;16.50;64.20;;;;;;5104815;28;20074;-80
2022/09/03 00:45:09;;;;;;;0.90;0.40;;;16.50;64.50;;;;;;5071162;28;20093;-80
2022/09/03 00:47:43;;;;;;;0.50;0.30;;;16.40;64.50;;;;;;5070861;28;20036;-80
2022/09/03 00:50:46;;;;;;;0.60;0.28;;;16.40;64.50;;;;;;5087796;28;20033;-80
2022/09/03 00:53:32;;;;;;;0.88;0.40;;;16.40;64.60;;;;;;5071001;28;20513;-80
2022/09/03 00:56:30;;;;;;;0.47;0.30;;;16.40;64.40;;;;;;5087741;28;20032;-80
2022/09/03 00:58:58;;;;;;;1.13;0.40;;;16.40;64.60;;;;;;5071068;28;20070;-80
2022/09/03 01:01:49;;;;;;;0.57;0.30;;;16.40;64.50;;;;;;5070830;28;20507;-80
2022/09/03 01:04:40;;;;;;;0.43;0.22;;;16.30;64.70;;;;;;5054263;28;20040;-80
2022/09/03 01:07:21;;;;;;;0.50;0.30;;;16.40;64.60;;;;;;5070903;28;20048;-79
2022/09/03 01:09:59;;;;;;;0.40;0.20;;;16.40;64.50;;;;;;5087697;28;20440;-80
2022/09/03 01:12:46;;;;;;;0.40;0.13;;;16.30;64.40;;;;;;5104268;28;20047;-79
2022/09/03 01:15:33;;;;;;;0.70;0.30;;;16.30;64.20;;;;;;5104239;28;20040;-80
2022/09/03 01:18:14;;;;;;;0.25;0.20;;;16.30;64.40;;;;;;5087227;28;20040;-80
2022/09/03 01:20:54;;;;;;;0.20;0.20;;;16.40;64.50;;;;;;5087055;28;20106;-80
2022/09/03 01:23:34;;;;;;;0.60;0.50;;;16.30;64.50;;;;;;5104134;28;20410;-80
2022/09/03 01:26:24;;;;;;;0.80;0.30;;;16.30;64.70;;;;;;5070267;28;20562;-80
2022/09/03 01:29:20;;;;;;;0.82;0.55;;;16.30;64.70;;;;;;5070001;28;20041;-81
2022/09/03 01:32:14;;;;;;;0.88;0.40;;;16.30;64.70;;;;;;5030885;28;20052;-80
2022/09/03 01:34:54;;;;;;;0.45;0.20;;;16.30;64.80;;;;;;5053319;28;20406;-80
2022/09/03 01:37:52;;;;;;;0.47;0.28;;;16.30;64.90;;;;;;5104125;28;20441;-80
2022/09/03 01:40:49;;;;;;;0.70;0.40;;;16.30;65.00;;;;;;5069903;28;20494;-80
2022/09/03 01:43:43;;;;;;;0.80;0.45;;;16.30;65.00;;;;;;5070097;28;20131;-80
2022/09/03 01:46:21;;;;;;;0.75;0.30;;;16.30;65.50;;;;;;5065989;28;20194;-80
2022/09/03 01:49:04;;;;;;;0.38;0.30;;;16.30;65.10;;;;;;5069902;28;20040;-80
2022/09/03 01:51:31;;;;;;;1.02;0.52;;;16.30;65.10;;;;;;5103472;28;20071;-80
2022/09/03 01:54:09;;;;;;;0.38;0.30;;;16.30;65.00;;;;;;5103971;28;20528;-80
2022/09/03 01:56:34;;;;;;;0.38;0.20;;;16.30;64.80;;;;;;5103629;28;20234;-80
2022/09/03 01:59:29;;;;;;;0.30;0.20;;;16.30;65.00;;;;;;5086983;28;20135;-80
2022/09/03 02:02:11;;;;;;;0.43;0.20;;;16.30;65.20;;;;;;5069230;28;20052;-80
2022/09/03 02:04:37;;;;;;;0.95;0.50;;;16.30;65.00;;;;;;5069704;28;20032;-80
2022/09/03 02:07:04;;;;;;;1.48;0.55;;;16.30;65.00;;;;;;5069414;28;20552;-80
2022/09/03 02:09:30;;;;;;;0.75;0.38;;;16.30;64.80;;;;;;5052601;28;20039;-80
2022/09/03 02:12:06;;;;;;;0.43;0.15;;;16.30;64.80;;;;;;5086165;28;20125;-80
2022/09/03 02:14:32;;;;;;;0.88;0.50;;;16.30;64.80;;;;;;5103382;28;20439;-80
2022/09/03 02:17:00;;;;;;;1.02;0.30;;;16.30;64.90;;;;;;5086314;28;20505;-80
2022/09/03 02:19:28;;;;;;;1.92;0.28;;;16.30;64.90;;;;;;5052609;28;20056;-80
2022/09/03 02:21:55;;;;;;;1.45;0.25;;;16.30;65.00;;;;;;5068954;28;20082;-80
2022/09/03 02:24:22;;;;;;;0.20;0.20;;;16.30;64.90;;;;;;5102784;28;20577;-80
2022/09/03 02:26:48;;;;;;;0.43;0.28;;;16.30;65.10;;;;;;5068905;28;20548;-80
2022/09/03 02:29:16;;;;;;;1.77;0.52;;;16.30;65.30;;;;;;5052624;28;20051;-80
2022/09/03 02:31:42;;;;;;;0.40;0.20;;;16.30;65.30;;;;;;5052332;28;20041;-80
2022/09/03 02:34:08;;;;;;;0.80;0.40;;;16.30;65.30;;;;;;5052500;28;20041;-80
2022/09/03 02:36:37;;;;;;;1.30;0.30;;;16.20;65.40;;;;;;5069217;28;20055;-80
2022/09/03 02:39:04;;;;;;;0.22;0.17;;;16.30;65.40;;;;;;5102651;28;20055;-80
2022/09/03 02:41:30;;;;;;;0.75;0.40;;;16.20;65.30;;;;;;5101877;28;20055;-80
2022/09/03 02:44:12;;;;;;;1.42;0.38;;;16.20;65.30;;;;;;5052544;28;20397;-80
2022/09/03 02:46:49;;;;;;;3.88;0.50;;;16.10;65.30;;;;;;5102478;28;20047;-80
2022/09/03 02:49:14;;;;;;;2.30;0.50;;;16.20;65.30;;;;;;5069327;28;20150;-80
2022/09/03 02:51:42;;;;;;;0.32;0.30;;;16.20;65.30;;;;;;5085452;28;20514;-80
2022/09/03 02:54:09;;;;;;;0.90;0.30;;;16.20;65.40;;;;;;5068983;28;20135;-80
2022/09/03 02:56:35;;;;;;;0.98;0.28;;;16.30;65.40;;;;;;5085544;28;20050;-80
2022/09/03 02:59:02;;;;;;;0.95;0.40;;;16.20;66.00;;;;;;5102602;28;20123;-80
2022/09/03 03:01:28;;;;;;;0.20;0.20;;;16.20;65.30;;;;;;5068922;28;20076;-80
2022/09/03 03:03:54;;;;;;;1.98;0.32;;;16.30;65.60;;;;;;5068555;28;20071;-80
2022/09/03 03:06:20;;;;;;;0.32;0.20;;;16.20;65.40;;;;;;5068436;28;20041;-80
2022/09/03 03:08:46;;;;;;;0.63;0.40;;;16.20;65.60;;;;;;5102567;28;20068;-80
2022/09/03 03:11:17;;;;;;;0.50;0.28;;;16.20;65.60;;;;;;5068832;28;20051;-80
2022/09/03 03:13:46;;;;;;;2.75;0.57;;;16.20;65.70;;;;;;5051967;28;20047;-80
2022/09/03 03:16:14;;;;;;;0.28;0.20;;;16.20;65.80;;;;;;5085322;28;20108;-80
2022/09/03 03:18:40;;;;;;;0.90;0.32;;;16.20;65.80;;;;;;5068505;28;20051;-80
2022/09/03 03:21:12;;;;;;;0.85;0.20;;;16.20;65.80;;;;;;5085488;28;20044;-80
2022/09/03 03:23:38;;;;;;;0.38;0.20;;;16.20;65.90;;;;;;5102163;28;20599;-81
2022/09/03 03:26:10;;;;;;;1.20;0.40;;;16.20;65.80;;;;;;5085375;28;20044;-80
2022/09/03 03:28:36;;;;;;;0.55;0.40;;;16.20;65.80;;;;;;5068762;28;20041;-80
2022/09/03 03:31:13;;;;;;;0.20;0.20;;;16.20;66.20;;;;;;5102331;28;20561;-80
2022/09/03 03:33:39;;;;;;;0.40;0.20;;;16.10;66.00;;;;;;5068267;28;20045;-80
2022/09/03 03:36:06;;;;;;;0.30;0.30;;;16.10;66.10;;;;;;5085416;28;20082;-80
2022/09/03 03:38:32;;;;;;;0.40;0.30;;;16.10;66.20;;;;;;5068284;28;20494;-80
2022/09/03 03:40:58;;;;;;;0.60;0.30;;;16.10;66.30;;;;;;5068362;28;20037;-80
2022/09/03 03:43:23;;;;;;;0.47;0.30;;;16.10;66.30;;;;;;5068179;28;20125;-80
2022/09/03 03:45:56;;;;;;;0.88;0.50;;;16.00;66.90;;;;;;5084789;28;20041;-80
2022/09/03 03:48:22;;;;;;;0.63;0.30;;;16.00;66.30;;;;;;5102115;28;20458;-80
2022/09/03 03:50:48;;;;;;;0.20;0.20;;;16.00;66.40;;;;;;5051758;28;20120;-80
2022/09/03 03:53:13;;;;;;;0.82;0.35;;;16.00;66.30;;;;;;5071135;28;20040;-80
2022/09/03 03:55:39;;;;;;;0.43;0.30;;;16.00;66.50;;;;;;5071806;28;20049;-81
2022/09/03 03:58:05;;;;;;;0.70;0.30;;;15.90;66.50;;;;;;5088768;28;20048;-80
2022/09/03 04:00:30;;;;;;;0.60;0.40;;;16.00;66.70;;;;;;5071766;28;20072;-80
2022/09/03 04:02:56;;;;;;;0.70;0.30;;;15.90;66.60;;;;;;5105527;28;20052;-80
2022/09/03 04:05:22;;;;;;;0.43;0.30;;;15.90;66.70;;;;;;5055315;28;20047;-80
2022/09/03 04:07:47;;;;;;;1.38;0.40;;;16.00;66.90;;;;;;5071938;28;20521;-80
2022/09/03 04:10:14;;;;;;;0.98;0.57;;;15.90;66.90;;;;;;5071940;28;20435;-80
2022/09/03 04:12:39;;;;;;;0.22;0.17;;;15.90;67.10;;;;;;5105754;28;20524;-80
2022/09/03 04:15:05;;;;;;;2.85;0.40;;;15.90;67.10;;;;;;5071446;28;20040;-80
2022/09/03 04:17:31;;;;;;;1.00;0.50;;;15.80;67.40;;;;;;5105426;28;20417;-80
2022/09/03 04:19:56;;;;;;;0.70;0.40;;;15.80;67.20;;;;;;5071651;28;20414;-80
2022/09/03 04:22:22;;;;;;;0.98;0.30;;;15.80;67.40;;;;;;5105249;28;20123;-80
2022/09/03 04:24:48;;;;;;;0.50;0.20;;;15.80;67.60;;;;;;5071164;28;20056;-80
2022/09/03 04:27:13;;;;;;;2.38;0.45;;;15.80;67.60;;;;;;5088348;28;20040;-80
2022/09/03 04:29:39;;;;;;;1.15;0.50;;;15.80;67.70;;;;;;5088130;28;20086;-81
2022/09/03 04:34:49;;;;;;;0.80;0.40;;;15.70;67.80;;;;;;5105153;28;20049;-80
2022/09/03 04:37:15;;;;;;;0.95;0.30;;;15.70;67.80;;;;;;5088620;28;20063;-80
2022/09/03 04:39:41;;;;;;;0.88;0.40;;;15.70;67.90;;;;;;5105172;28;20064;-80
2022/09/03 04:42:06;;;;;;;0.40;0.38;;;15.60;67.80;;;;;;5071054;28;20460;-80
2022/09/03 04:44:33;;;;;;;0.73;0.30;;;15.60;67.90;;;;;;5104973;28;20043;-80
2022/09/03 04:46:58;;;;;;;0.68;0.40;;;15.60;68.10;;;;;;5104940;28;20418;-80
2022/09/03 04:49:24;;;;;;;0.60;0.30;;;15.60;68.20;;;;;;5071356;28;20047;-80
2022/09/03 04:51:50;;;;;;;1.27;0.47;;;15.60;68.10;;;;;;5104857;28;20467;-80
2022/09/03 04:54:16;;;;;;;1.10;0.30;;;15.50;68.20;;;;;;5070924;28;20123;-80
2022/09/03 04:56:41;;;;;;;1.48;0.60;;;15.60;68.20;;;;;;5070611;28;20045;-80
2022/09/03 04:59:08;;;;;;;0.85;0.50;;;15.60;68.40;;;;;;5104751;28;20040;-80
2022/09/03 05:01:36;;;;;;;0.80;0.40;;;15.50;68.50;;;;;;5104479;28;20589;-80
2022/09/03 05:04:03;;;;;;;0.80;0.40;;;15.50;68.60;;;;;;5069692;28;20052;-80
2022/09/03 05:06:30;;;;;;;1.00;0.40;;;15.50;68.60;;;;;;5104749;28;20124;-80
2022/09/03 05:08:56;;;;;;;0.75;0.47;;;15.50;68.80;;;;;;5104980;28;20028;-80
2022/09/03 05:11:24;;;;;;;1.27;0.40;;;15.50;68.80;;;;;;5104513;28;20089;-80
2022/09/03 05:13:52;;;;;;;1.05;0.63;;;15.50;69.00;;;;;;5104653;28;20044;-80
2022/09/03 05:16:19;;;;;;;0.70;0.43;;;15.40;69.00;;;;;;5104788;28;20036;-80
2022/09/03 05:18:46;;;;;;;1.00;0.50;;;15.50;69.10;;;;;;5104697;28;20127;-80
2022/09/03 05:21:13;;;;;;;0.38;0.30;;;15.40;69.10;;;;;;5104459;28;20060;-80
2022/09/03 05:23:42;;;;;;;1.15;0.50;;;15.40;69.20;;;;;;5069866;28;20087;-80
2022/09/03 05:26:11;;;;;;;4.57;0.60;;;15.40;69.30;;;;;;5104615;28;20253;-80
2022/09/03 05:28:39;;;;;;;1.15;0.60;;;15.40;69.20;;;;;;5053619;28;20517;-80
2022/09/03 05:31:07;;;;;;;0.70;0.60;;;15.40;69.30;;;;;;5104113;28;20120;-80
2022/09/03 05:33:39;;;;;;;2.15;0.40;;;15.40;69.40;;;;;;5103982;28;20119;-80
2022/09/03 05:36:06;;;;;;;1.58;0.60;;;15.40;69.60;;;;;;5103958;28;20077;-80
2022/09/03 05:38:32;;;;;;;0.57;0.40;;;15.40;69.60;;;;;;5104309;28;20109;-80
2022/09/03 05:40:59;;;;;;;0.63;0.40;;;15.40;69.70;;;;;;5103866;28;20044;-80
2022/09/03 05:43:26;;;;;;;1.08;0.68;;;15.40;69.80;;;;;;5103950;28;20082;-80
2022/09/03 05:45:59;;;;;;;1.58;0.70;;;15.40;69.90;;;;;;5069748;28;20521;-80
2022/09/03 05:48:27;;;;;;;2.03;0.70;;;15.40;70.10;;;;;;5103682;28;20076;-80
2022/09/03 05:51:07;;;;;;;0.90;0.55;;;15.40;70.00;;;;;;5069736;28;20105;-80
2022/09/03 05:53:35;;;;;;;0.60;0.35;;;15.40;70.50;;;;;;5103877;28;20037;-80
2022/09/03 05:56:04;;;;;;;1.13;0.63;;;15.40;70.30;;;;;;5053223;28;20493;-80
2022/09/03 05:58:35;;;;;;;0.60;0.40;;;15.50;70.60;;;;;;5069656;28;20052;-81
2022/09/03 06:01:15;;;;;;;0.98;0.52;;;15.50;70.70;;;;;;5052849;28;20494;-80
2022/09/03 06:03:42;;;;;;;0.98;0.60;;;15.40;71.10;;;;;;5069485;28;20055;-80
2022/09/03 06:06:08;;;;;;;1.50;0.63;;;15.40;70.80;;;;;;5052594;28;20051;-80
2022/09/03 06:08:37;;;;;;;1.60;0.65;;;15.40;71.00;;;;;;5069490;28;20067;-80
2022/09/03 06:11:03;;;;;;;2.08;0.75;;;15.50;71.30;;;;;;5103298;28;20120;-80
2022/09/03 06:13:30;;;;;;;0.75;0.50;;;15.40;71.40;;;;;;5103241;28;20075;-80
2022/09/03 06:15:56;;;;;;;1.20;0.70;;;15.40;71.30;;;;;;5052313;28;20033;-80
2022/09/03 06:18:23;;;;;;;1.73;0.85;;;15.40;71.50;;;;;;5052745;28;20036;-80
2022/09/03 06:21:00;;;;;;;1.52;0.90;;;15.50;71.50;;;;;;5069141;28;20052;-80
2022/09/03 06:23:27;;;;;;;1.83;0.60;;;15.50;71.80;;;;;;5102729;28;20135;-80
2022/09/03 06:26:07;;;;;;;1.35;0.60;;;15.50;71.70;;;;;;5052321;28;20084;-80
2022/09/03 06:28:34;;;;;;;1.02;0.50;;;15.50;72.20;;;;;;5052320;28;20049;-80
2022/09/03 06:31:02;;;;;;;0.98;0.52;;;15.50;71.80;;;;;;5103189;28;20639;-80
2022/09/03 06:33:30;;;;;;;1.35;0.70;;;15.50;72.00;;;;;;5052636;28;20040;-80
2022/09/03 06:35:57;;;;;;;0.98;0.60;;;15.50;72.10;;;;;;5052255;28;20489;-80
2022/09/03 06:38:27;;;;;;;1.00;0.52;;;15.50;72.20;;;;;;5069069;28;20044;-80
2022/09/03 06:41:00;;;;;;;1.65;0.75;;;15.50;72.30;;;;;;5085649;28;20040;-80
2022/09/03 06:43:27;;;;;;;1.45;0.80;;;15.50;72.50;;;;;;5069171;28;20071;-80
2022/09/03 06:45:54;;;;;;;1.33;0.75;;;15.50;72.50;;;;;;5102805;28;20443;-80
2022/09/03 06:48:20;;;;;;;1.33;0.75;;;15.50;72.80;;;;;;5068801;28;20093;-80
2022/09/03 06:51:03;;;;;;;0.90;0.60;;;15.50;72.70;;;;;;5102719;28;20044;-80
2022/09/03 06:53:41;;;;;;;0.80;0.50;;;15.60;73.30;;;;;;5102591;28;20036;-80
2022/09/03 06:56:12;;;;;;;1.25;0.50;;;15.60;73.40;;;;;;5052330;28;20114;-80
2022/09/03 06:58:46;;;;;;;1.08;0.40;;;15.60;73.10;;;;;;5052472;28;20101;-80
2022/09/03 07:01:17;;;;;;;1.88;1.02;;;15.60;73.10;;;;;;5052381;28;20385;-80
2022/09/03 07:03:45;;;;;;;2.20;0.85;;;15.70;73.10;;;;;;5051815;28;20043;-80
2022/09/03 07:06:18;;;;;;;1.02;0.68;;;15.70;73.20;;;;;;5102350;28;20051;-80
2022/09/03 07:08:45;;;;;;;1.25;0.70;;;15.80;73.90;;;;;;5085727;28;20040;-80
2022/09/03 07:11:13;;;;;;;1.00;0.60;;;15.80;73.40;;;;;;5052078;28;20037;-80
2022/09/03 07:13:45;;;;;;;0.90;0.50;;;15.80;73.60;;;;;;5051980;28;20038;-80
2022/09/03 07:16:32;;;;;;;3.58;0.93;;;15.90;73.80;;;;;;5051769;28;20510;-80
2022/09/03 07:18:59;;;;;;;1.20;0.75;;;15.90;74.20;;;;;;5102635;28;20135;-80
2022/09/03 07:21:27;;;;;;;1.73;1.00;;;16.00;73.70;;;;;;5085478;28;20048;-80
2022/09/03 07:23:54;;;;;;;0.93;0.50;;;16.10;73.60;;;;;;5085012;28;20075;-80
2022/09/03 07:26:26;;;;;;;1.40;0.50;;;16.10;73.60;;;;;;5085398;28;20410;-80
2022/09/03 07:28:53;;;;;;;0.77;0.30;;;16.20;73.50;;;;;;5072134;28;20093;-80
2022/09/03 07:31:34;;;;;;;0.63;0.40;;;16.20;73.10;;;;;;5072751;28;20406;-80
2022/09/03 07:34:05;;;;;;;0.60;0.43;;;16.30;73.20;;;;;;5055961;28;20083;-80
2022/09/03 07:36:40;;;;;;;1.42;0.52;;;16.40;72.70;;;;;;5055462;28;20466;-80
2022/09/03 07:39:06;;;;;;;0.70;0.40;;;16.40;72.60;;;;;;5072270;28;20047;-80
2022/09/03 07:41:32;;;;;;;0.52;0.43;;;16.50;72.30;;;;;;5072141;28;20086;-80
2022/09/03 07:44:04;;;;;;;1.15;0.40;;;16.60;72.30;;;;;;5088940;28;20079;-79
2022/09/03 07:46:30;;;;;;;0.93;0.50;;;16.70;72.20;;;;;;5105969;28;20045;-80
2022/09/03 07:48:57;;;;;;;0.80;0.40;;;16.70;72.20;;;;;;5055699;28;20039;-80
2022/09/03 07:51:25;;;;;;;1.00;0.47;;;16.70;72.00;;;;;;5072125;28;20424;-80
2022/09/03 07:53:53;;;;;;;0.63;0.30;;;16.80;72.00;;;;;;5071757;28;20055;-80
2022/09/03 07:56:18;;;;;;;0.70;0.47;;;16.90;72.10;;;;;;5105932;28;20041;-79
2022/09/03 07:58:44;;;;;;;1.10;0.50;;;16.90;71.80;;;;;;5105902;28;20059;-80
2022/09/03 08:01:13;;;;;;;0.80;0.50;;;16.90;71.40;;;;;;5106170;28;20048;-80
2022/09/03 08:03:42;;;;;;;1.33;0.47;;;17.00;72.10;;;;;;5105774;28;20036;-80
2022/09/03 08:06:09;;;;;;;1.67;0.40;;;17.10;71.40;;;;;;5105760;28;20040;-80
2022/09/03 08:08:36;;;;;;;0.90;0.55;;;17.10;71.80;;;;;;5105442;28;20037;-79
2022/09/03 08:11:11;;;;;;;0.80;0.43;;;17.10;71.20;;;;;;5055110;28;20037;-79
2022/09/03 08:13:40;;;;;;;0.82;0.47;;;17.20;71.30;;;;;;5105781;28;20433;-79
2022/09/03 08:16:07;;;;;;;0.98;0.47;;;17.20;71.00;;;;;;5105511;28;20067;-79
2022/09/03 08:18:37;;;;;;;1.80;0.60;;;17.30;70.80;;;;;;5054887;28;20040;-80
2022/09/03 08:21:17;;;;;;;2.65;0.68;;;17.30;71.00;;;;;;5105454;28;20405;-80
2022/09/03 08:23:48;;;;;;;0.95;0.43;;;17.30;70.70;;;;;;5054839;28;20056;-79
2022/09/03 08:26:15;;;;;;;1.75;0.40;;;17.40;70.80;;;;;;5071794;28;20040;-79
2022/09/03 08:28:42;;;;;;;0.85;0.50;;;17.40;70.70;;;;;;5071275;28;20055;-80
2022/09/03 08:31:11;;;;;;;1.08;0.50;;;17.40;70.60;;;;;;5105244;28;20549;-80
2022/09/03 08:33:42;;;;;;;0.77;0.50;;;17.50;70.70;;;;;;5054371;28;20041;-79
2022/09/03 08:36:24;;;;;;;1.05;0.60;;;17.50;70.60;;;;;;5105354;28;20421;-79
2022/09/03 08:38:52;;;;;;;0.75;0.40;;;17.60;70.20;;;;;;5053215;28;20500;-80
2022/09/03 08:41:32;;;;;;;0.80;0.43;;;17.60;70.10;;;;;;5071156;28;20040;-79
2022/09/03 08:44:05;;;;;;;1.05;0.60;;;17.70;70.10;;;;;;5088065;28;20123;-80
2022/09/03 08:46:46;;;;;;;1.70;0.50;;;17.70;69.90;;;;;;5087748;28;20059;-80
2022/09/03 08:49:15;;;;;;;1.23;0.60;;;17.80;69.90;;;;;;5054713;28;20115;-79
2022/09/03 08:51:43;;;;;;;2.05;0.80;;;17.90;69.70;;;;;;5105097;28;20033;-79
2022/09/03 08:54:10;;;;;;;1.45;0.40;;;17.90;69.70;;;;;;5087711;28;20090;-79
2022/09/03 08:56:40;;;;;;;0.77;0.52;;;17.90;69.60;;;;;;5087493;28;20032;-80
2022/09/03 08:59:07;;;;;;;1.10;0.50;;;18.00;69.50;;;;;;5104836;28;20036;-80
2022/09/03 09:02:10;;;;;;;0.50;0.30;;;18.10;69.70;;;;;;5104814;28;20044;-80
2022/09/03 09:04:59;;;;;;;0.98;0.47;;;18.10;69.40;;;;;;5037306;28;20083;-79
2022/09/03 09:07:34;;;;;;;0.80;0.30;;;18.10;69.20;;;;;;5053811;28;20049;-80
2022/09/03 09:10:27;;;;;;;0.55;0.30;;;18.20;69.00;;;;;;5054004;28;20497;-79
2022/09/03 09:13:15;;;;;;;0.68;0.50;;;18.20;68.80;;;;;;5070326;28;20082;-79
2022/09/03 09:15:44;;;;;;;1.20;0.50;;;18.30;69.00;;;;;;5053758;28;20144;-80
2022/09/03 09:18:38;;;;;;;0.95;0.57;;;18.40;68.60;;;;;;5070332;28;20080;-80
2022/09/03 09:21:14;;;;;;;0.70;0.30;;;18.50;68.50;;;;;;5065339;28;20048;-80
2022/09/03 09:23:48;;;;;;;0.90;0.40;;;18.50;68.30;;;;;;5103704;28;20053;-79
2022/09/03 09:26:20;;;;;;;1.75;0.45;;;18.60;68.40;;;;;;5070444;28;20045;-80
2022/09/03 09:28:52;;;;;;;0.90;0.50;;;18.60;67.70;;;;;;5070452;28;20044;-79
2022/09/03 09:31:19;;;;;;;0.57;0.30;;;18.70;67.80;;;;;;5104105;28;20498;-79
2022/09/03 09:33:45;;;;;;;0.38;0.30;;;18.80;67.60;;;;;;5087001;28;20036;-79
2022/09/03 09:36:18;;;;;;;2.53;0.73;;;18.80;67.60;;;;;;5053558;28;20040;-80
2022/09/03 09:38:45;;;;;;;2.15;0.40;;;18.80;67.70;;;;;;5104200;28;20040;-79
2022/09/03 09:41:17;;;;;;;1.00;0.65;;;18.90;67.50;;;;;;5104003;28;20044;-79
2022/09/03 09:43:44;;;;;;;0.45;0.32;;;18.90;67.30;;;;;;5053351;28;20080;-80
2022/09/03 09:46:15;;;;;;;1.05;0.50;;;18.90;67.20;;;;;;5104013;28;20520;-80
2022/09/03 09:48:55;;;;;;;2.88;0.50;;;19.00;67.20;;;;;;5103402;28;20123;-79
2022/09/03 09:51:22;;;;;;;0.47;0.30;;;19.00;66.90;;;;;;5086330;28;20041;-80
2022/09/03 09:54:00;;;;;;;0.60;0.32;;;19.10;67.00;;;;;;5053068;28;20127;-79
2022/09/03 09:56:26;;;;;;;0.65;0.47;;;19.10;66.30;;;;;;5052990;28;20044;-79
2022/09/03 09:59:06;;;;;;;0.93;0.40;;;19.20;66.50;;;;;;5103348;28;20059;-79
2022/09/03 10:01:33;;;;;;;1.42;0.60;;;19.30;65.80;;;;;;5069832;28;20042;-79
2022/09/03 10:04:07;;;;;;;0.80;0.40;;;19.30;66.10;;;;;;5069477;28;20478;-79
2022/09/03 10:06:52;;;;;;;0.80;0.55;;;19.40;65.90;;;;;;5069647;28;20024;-79
2022/09/03 10:09:22;;;;;;;1.35;0.45;;;19.40;65.60;;;;;;5052555;28;20127;-79
2022/09/03 10:12:22;;;;;;;0.73;0.40;;;19.50;65.20;;;;;;5052817;28;20498;-80
2022/09/03 10:14:57;;;;;;;0.70;0.40;;;19.60;64.30;;;;;;5049308;28;20765;-80
2022/09/03 10:17:41;;;;;;;4.65;0.60;;;19.60;64.90;;;;;;5103315;28;20091;-81
2022/09/03 10:20:31;;;;;;;0.70;0.50;;;19.70;64.80;;;;;;5069386;28;20040;-80
2022/09/03 10:22:59;;;;;;;1.17;0.45;;;19.70;63.70;;;;;;5069054;28;20060;-80
2022/09/03 10:25:34;;;;;;;0.60;0.40;;;19.80;64.70;;;;;;5069410;28;20498;-80
2022/09/03 10:28:00;;;;;;;0.95;0.32;;;19.80;64.20;;;;;;5068764;28;20048;-80
2022/09/03 10:30:31;;;;;;;0.30;0.20;;;19.90;64.20;;;;;;5103081;28;20052;-80
2022/09/03 10:33:14;;;;;;;1.48;0.45;;;19.90;64.00;;;;;;5069174;28;20456;-80
2022/09/03 10:35:52;;;;;;;1.67;0.40;;;19.90;62.30;;;;;;5052372;28;20047;-80
2022/09/03 10:38:31;;;;;;;1.00;0.35;;;20.00;63.50;;;;;;5102916;28;20441;-80
2022/09/03 10:41:12;;;;;;;1.17;0.50;;;20.10;63.00;;;;;;5070522;28;20135;-80
2022/09/03 10:43:57;;;;;;;0.82;0.35;;;20.10;63.60;;;;;;5052279;28;20523;-80
2022/09/03 10:46:28;;;;;;;4.25;0.52;;;20.10;61.90;;;;;;5069212;28;20040;-80
2022/09/03 10:49:27;;;;;;;1.15;0.68;;;20.20;62.40;;;;;;5102350;28;20052;-80
2022/09/03 10:52:08;;;;;;;1.13;0.45;;;20.20;61.10;;;;;;5102588;28;20075;-80
2022/09/03 10:54:57;;;;;;;0.50;0.30;;;20.30;61.70;;;;;;5068800;28;20044;-80
2022/09/03 10:57:47;;;;;;;0.47;0.28;;;20.40;62.30;;;;;;5052213;28;20041;-80
2022/09/03 11:00:17;;;;;;;0.52;0.30;;;20.40;61.60;;;;;;5052230;28;20036;-80
2022/09/03 11:03:20;;;;;;;0.63;0.40;;;20.40;61.30;;;;;;5051390;28;20043;-80
2022/09/03 11:06:18;;;;;;;0.60;0.40;;;20.50;58.90;;;;;;5051977;28;20080;-80
2022/09/03 11:09:01;;;;;;;0.98;0.55;;;20.50;59.90;;;;;;5051766;28;20036;-80
2022/09/03 11:11:41;;;;;;;0.38;0.28;;;20.60;59.60;;;;;;5052266;28;20433;-80
2022/09/03 11:14:10;;;;;;;1.05;0.40;;;20.60;60.10;;;;;;5052197;28;20490;-80
2022/09/03 11:16:50;;;;;;;1.17;0.50;;;20.70;59.90;;;;;;5102265;28;20490;-80
2022/09/03 11:19:17;;;;;;;1.05;0.40;;;20.70;59.20;;;;;;5052089;28;20040;-80
2022/09/03 11:21:45;;;;;;;1.73;0.40;;;20.70;59.70;;;;;;5102749;28;20041;-80
2022/09/03 11:24:19;;;;;;;0.98;0.45;;;20.70;59.50;;;;;;5102100;28;20048;-79
2022/09/03 11:26:51;;;;;;;0.70;0.40;;;20.80;58.90;;;;;;5068429;28;20056;-80
2022/09/03 11:29:47;;;;;;;3.55;0.50;;;20.80;59.10;;;;;;5102452;28;20282;-80
2022/09/03 11:32:20;;;;;;;0.60;0.40;;;20.80;57.70;;;;;;5052171;28;20576;-79
2022/09/03 11:34:49;;;;;;;0.30;0.30;;;20.80;57.90;;;;;;5102351;28;20045;-80
2022/09/03 11:37:23;;;;;;;1.02;0.40;;;20.80;58.50;;;;;;5068612;28;20040;-80
2022/09/03 11:40:08;;;;;;;0.50;0.30;;;20.90;56.50;;;;;;5051582;28;20044;-80
2022/09/03 11:42:37;;;;;;;0.85;0.47;;;20.90;57.00;;;;;;5068591;28;20489;-80
2022/09/03 11:45:21;;;;;;;0.40;0.30;;;20.90;58.30;;;;;;5051685;28;20370;-80
2022/09/03 11:47:47;;;;;;;0.55;0.30;;;20.90;55.40;;;;;;5068798;28;20453;-79
2022/09/03 11:50:32;;;;;;;0.70;0.50;;;21.00;57.70;;;;;;5068510;28;20119;-80
2022/09/03 11:53:18;;;;;;;0.80;0.50;;;21.10;55.60;;;;;;5102368;28;20132;-80
2022/09/03 11:55:55;;;;;;;;;;;21.10;56.50;;;;;;5058234;28;20048;-80
2022/09/03 11:58:25;;;;;;;;;;;21.20;54.20;;;;;;5069331;28;19960;-80
2022/09/03 12:00:52;;;;;;;0.75;0.30;;;21.20;54.10;;;;;;5068220;28;19916;-80
2022/09/03 12:03:27;;;;;;;1.13;0.40;;;21.20;57.10;;;;;;5102507;28;20371;-80
2022/09/03 12:06:03;;;;;;;0.73;0.35;;;21.20;56.60;;;;;;5068030;28;20033;-80
2022/09/03 12:08:52;;;;;;;1.13;0.60;;;21.30;56.80;;;;;;5068181;28;20051;-80
2022/09/03 12:11:59;;;;;;;1.33;0.60;;;21.20;55.00;;;;;;5068383;28;20138;-80
2022/09/03 12:14:34;;;;;;;0.55;0.32;;;21.30;54.00;;;;;;5071279;28;20037;-80
2022/09/03 12:17:22;;;;;;;1.50;0.40;;;21.30;56.10;;;;;;5071569;28;20056;-80
2022/09/03 12:19:53;;;;;;;1.10;0.50;;;21.30;55.00;;;;;;5071403;28;20048;-80
2022/09/03 12:22:22;;;;;;;0.38;0.30;;;21.30;55.70;;;;;;5105874;28;20044;-80
2022/09/03 12:24:49;;;;;;;0.80;0.47;;;21.40;55.90;;;;;;5104826;28;20410;-80
2022/09/03 12:27:23;;;;;;;0.40;0.40;;;21.40;55.50;;;;;;5088785;28;20132;-80
2022/09/03 12:30:04;;;;;;;1.67;0.47;;;21.50;54.40;;;;;;5105221;28;20102;-80
2022/09/03 12:32:36;;;;;;;0.90;0.40;;;21.40;53.70;;;;;;5054632;28;20560;-81
2022/09/03 12:35:16;;;;;;;0.75;0.60;;;21.50;54.70;;;;;;5054359;28;20072;-80
2022/09/03 12:37:44;;;;;;;1.10;0.60;;;21.50;53.60;;;;;;5054516;28;20076;-80
2022/09/03 12:40:41;;;;;;;0.88;0.40;;;21.60;54.90;;;;;;5105122;28;20410;-80
2022/09/03 12:43:13;;;;;;;1.17;0.50;;;21.60;52.40;;;;;;5042580;28;20052;-80
2022/09/03 12:45:47;;;;;;;2.95;0.32;;;21.60;54.50;;;;;;5054216;28;20514;-80
2022/09/03 12:48:14;;;;;;;0.30;0.30;;;21.70;54.20;;;;;;5054594;28;20078;-80
2022/09/03 12:50:41;;;;;;;0.65;0.40;;;21.60;54.50;;;;;;5071224;28;20058;-80
2022/09/03 12:53:09;;;;;;;0.82;0.35;;;21.60;54.20;;;;;;5071037;28;20033;-80
2022/09/03 12:55:42;;;;;;;0.90;0.47;;;21.60;54.10;;;;;;5070926;28;20564;-80
2022/09/03 12:58:32;;;;;;;0.30;0.30;;;21.60;52.90;;;;;;5054137;28;20441;-80
2022/09/03 13:01:18;;;;;;;0.68;0.30;;;21.70;52.30;;;;;;5070659;28;20517;-80
2022/09/03 13:04:07;;;;;;;0.60;0.30;;;21.70;53.40;;;;;;5071122;28;20498;-80
2022/09/03 13:06:48;;;;;;;0.50;0.35;;;21.70;53.30;;;;;;5104730;28;20084;-79
2022/09/03 13:09:17;;;;;;;0.93;0.40;;;21.70;53.30;;;;;;5054124;28;20094;-78
2022/09/03 13:11:43;;;;;;;1.00;0.30;;;21.70;53.90;;;;;;5070653;28;20032;-80
2022/09/03 13:14:12;;;;;;;0.77;0.50;;;21.70;53.90;;;;;;5070852;28;20478;-81
2022/09/03 13:16:41;;;;;;;0.63;0.50;;;21.70;53.70;;;;;;5104586;28;20368;-80
2022/09/03 13:19:35;;;;;;;0.50;0.30;;;21.80;53.70;;;;;;5087372;28;20103;-80
2022/09/03 13:22:22;;;;;;;0.80;0.43;;;21.80;49.80;;;;;;5087454;28;20401;-81